Sky Ever — DSQX9 — position and weather

sailwx.info

Track history (hours):
 
Tides and Currents Weather Stations Pressure Air Temp Water Temp Dewpoint Dewpoint Depression Visibility Wind Speed Wind Dir Waves Ship Positions

Sky Ever

Last reported at 2017-Nov-16 06:30 UTC. Time now 2017-Nov-24 13:05 UTC.
Position N 34°36' E 135°05'.
Warning: this ship's position is 8 days out of date.

Length 76 m; draft 5.6 m.

Type: Cargo ship. MMSI: 441751000.

Date/timePositionNaut miles runAvg speedWind from/ knotsBaromVisibWave heightAir tempDewpointWater temp
2017-Nov-16 06:30N 34°36' E 135°05'4 8.1
2017-Nov-16 06:00N 34°36' E 135°10'4 7.7
2017-Nov-16 05:30N 34°36' E 135°15'4 7.9
2017-Nov-16 04:58N 34°36' E 135°20'4 7.8
2017-Nov-16 04:30N 34°36' E 135°24'2 0.5
2017-Nov-15 23:28N 34°35' E 135°27'0 0.0
2017-Nov-15 22:59N 34°35' E 135°27'2 3.3
2017-Nov-15 22:31N 34°36' E 135°25'2 3.2
2017-Nov-15 21:59N 34°36' E 135°23'0 0.0
2017-Nov-15 21:29N 34°36' E 135°23'0 0.0
2017-Nov-15 20:59N 34°36' E 135°23'0 0.0
2017-Nov-15 20:29N 34°36' E 135°23'0 0.0
2017-Nov-15 19:53N 34°36' E 135°23'0 0.0
2017-Nov-15 19:29N 34°36' E 135°23'0 0.0
2017-Nov-15 18:53N 34°36' E 135°23'0 0.0
2017-Nov-15 18:11N 34°36' E 135°23'0 0.0
2017-Nov-15 17:41N 34°36' E 135°23'0 0.0
2017-Nov-15 17:17N 34°36' E 135°23'0 0.0
2017-Nov-15 16:59N 34°36' E 135°23'0 0.0
2017-Nov-15 16:23N 34°36' E 135°23'0 0.0
2017-Nov-15 15:59N 34°36' E 135°23'0 0.0
2017-Nov-15 15:29N 34°36' E 135°23'0 0.0
2017-Nov-15 14:59N 34°36' E 135°23'0 0.0
2017-Nov-15 14:29N 34°36' E 135°23'0 0.0
2017-Nov-15 13:47N 34°36' E 135°23'0 0.0
2017-Nov-15 13:29N 34°36' E 135°23'0 0.0
2017-Nov-15 12:47N 34°36' E 135°23'0 0.0
2017-Nov-15 12:29N 34°36' E 135°23'0 0.0
2017-Nov-15 11:59N 34°36' E 135°23'0 0.0
2017-Nov-15 09:59N 34°36' E 135°23'0 0.0
2017-Nov-15 09:10N 34°36' E 135°23'0 0.0
2017-Nov-15 08:46N 34°36' E 135°23'0 0.0
2017-Nov-15 08:28N 34°36' E 135°23'0 0.0
2017-Nov-15 07:52N 34°36' E 135°23'0 0.0
2017-Nov-15 04:29N 34°36' E 135°23'4 7.9
2017-Nov-15 04:00N 34°34' E 135°19'4 8.5
2017-Nov-15 03:29N 34°31' E 135°15'4 8.6
2017-Nov-15 02:59N 34°28' E 135°11'4 8.2
2017-Nov-15 02:28N 34°25' E 135°07'13 7.2
2017-Nov-15 00:41N 34°14' E 134°60'2 8.7
2017-Nov-15 00:24N 34°12' E 135°00'6 8.7
2017-Nov-14 23:46N 34°06' E 135°01'  
2017-Nov-12 10:45N 35°29' E 139°51'3 8.8
2017-Nov-12 10:24N 35°27' E 139°48'4 9.0
2017-Nov-12 09:57N 35°23' E 139°46'5 9.1
2017-Nov-12 09:27N 35°19' E 139°44'4 8.7
2017-Nov-12 09:00N 35°16' E 139°47'4 8.6
2017-Nov-12 08:30N 35°11' E 139°47'4 8.7
2017-Nov-12 08:00N 35°07' E 139°45'5 9.3
2017-Nov-12 07:30N 35°03' E 139°42'5 9.3
2017-Nov-12 07:00N 35°00' E 139°38'5 9.5
2017-Nov-12 06:30N 34°57' E 139°33'  
Track history (hours):
 
Tides and Currents Weather Stations Pressure Air Temp Water Temp Dewpoint Dewpoint Depression Visibility Wind Speed Wind Dir Waves Ship Positions

Sky Ever

Last reported at 2017-Nov-16 06:30 UTC. Time now 2017-Nov-24 13:05 UTC.
Position N 34°36' E 135°05'.
Warning: this ship's position is 8 days out of date.

Length 76 m; draft 5.6 m.

Type: Cargo ship. MMSI: 441751000.

Date/timePositionNaut miles runAvg speedWind from/ knotsBaromVisibWave heightAir tempDewpointWater temp
2017-Nov-16 06:30N 34°36' E 135°05'4 8.1
2017-Nov-16 06:00N 34°36' E 135°10'4 7.7
2017-Nov-16 05:30N 34°36' E 135°15'4 7.9
2017-Nov-16 04:58N 34°36' E 135°20'4 7.8
2017-Nov-16 04:30N 34°36' E 135°24'2 0.5
2017-Nov-15 23:28N 34°35' E 135°27'0 0.0
2017-Nov-15 22:59N 34°35' E 135°27'2 3.3
2017-Nov-15 22:31N 34°36' E 135°25'2 3.2
2017-Nov-15 21:59N 34°36' E 135°23'0 0.0
2017-Nov-15 21:29N 34°36' E 135°23'0 0.0
2017-Nov-15 20:59N 34°36' E 135°23'0 0.0
2017-Nov-15 20:29N 34°36' E 135°23'0 0.0
2017-Nov-15 19:53N 34°36' E 135°23'0 0.0
2017-Nov-15 19:29N 34°36' E 135°23'0 0.0
2017-Nov-15 18:53N 34°36' E 135°23'0 0.0
2017-Nov-15 18:11N 34°36' E 135°23'0 0.0
2017-Nov-15 17:41N 34°36' E 135°23'0 0.0
2017-Nov-15 17:17N 34°36' E 135°23'0 0.0
2017-Nov-15 16:59N 34°36' E 135°23'0 0.0
2017-Nov-15 16:23N 34°36' E 135°23'0 0.0
2017-Nov-15 15:59N 34°36' E 135°23'0 0.0
2017-Nov-15 15:29N 34°36' E 135°23'0 0.0
2017-Nov-15 14:59N 34°36' E 135°23'0 0.0
2017-Nov-15 14:29N 34°36' E 135°23'0 0.0
2017-Nov-15 13:47N 34°36' E 135°23'0 0.0
2017-Nov-15 13:29N 34°36' E 135°23'0 0.0
2017-Nov-15 12:47N 34°36' E 135°23'0 0.0
2017-Nov-15 12:29N 34°36' E 135°23'0 0.0
2017-Nov-15 11:59N 34°36' E 135°23'0 0.0
2017-Nov-15 09:59N 34°36' E 135°23'0 0.0
2017-Nov-15 09:10N 34°36' E 135°23'0 0.0
2017-Nov-15 08:46N 34°36' E 135°23'0 0.0
2017-Nov-15 08:28N 34°36' E 135°23'0 0.0
2017-Nov-15 07:52N 34°36' E 135°23'0 0.0
2017-Nov-15 04:29N 34°36' E 135°23'4 7.9
2017-Nov-15 04:00N 34°34' E 135°19'4 8.5
2017-Nov-15 03:29N 34°31' E 135°15'4 8.6
2017-Nov-15 02:59N 34°28' E 135°11'4 8.2
2017-Nov-15 02:28N 34°25' E 135°07'13 7.2
2017-Nov-15 00:41N 34°14' E 134°60'2 8.7
2017-Nov-15 00:24N 34°12' E 135°00'6 8.7
2017-Nov-14 23:46N 34°06' E 135°01'  
2017-Nov-12 10:45N 35°29' E 139°51'3 8.8
2017-Nov-12 10:24N 35°27' E 139°48'4 9.0
2017-Nov-12 09:57N 35°23' E 139°46'5 9.1
2017-Nov-12 09:27N 35°19' E 139°44'4 8.7
2017-Nov-12 09:00N 35°16' E 139°47'4 8.6
2017-Nov-12 08:30N 35°11' E 139°47'4 8.7
2017-Nov-12 08:00N 35°07' E 139°45'5 9.3
2017-Nov-12 07:30N 35°03' E 139°42'5 9.3
2017-Nov-12 07:00N 35°00' E 139°38'5 9.5
2017-Nov-12 06:30N 34°57' E 139°33'  

Dump ship's entire track history